Details From KWYS - Yellowstone
To KGPI - Glacier Park Intl
Flight Number -
Tags Decoded
Created
Modified
Stats Distance 277 nm / 512 km
Max Altitude 0 ft / 0 m
Waypoints 7
Social Downloads 3
Likes 0
Share VATSIM

Download

Looking for another format? Having issues loading an existing format? Contact us
Advertisement - Login to hide

Notes

Decoded

Route

KWYS HIA CPN MSO SKOTT SAK KGPI

ID Type Via Altitude Latitude Longitude Leg Dist Tot Dist Heading (true) Name
O KWYS APT - 0 ft / 0 m 44.67807˚ -111.12478˚ - 0 nm - -
HIA VOR - 0 ft / 0 m 45.86181˚ -112.16961˚ 83 nm 83 nm 329° / 328° WHITEHALL VOR-DME
CPN VOR - 0 ft / 0 m 46.03200˚ -112.74753˚ 26 nm 109 nm 293° / 293° COPPERTOWN VOR-DME
MSO VOR - 0 ft / 0 m 46.90797˚ -114.08364˚ 76 nm 186 nm 314° / 313° MISSOULA VOR-DME
SKOTT FIX - 0 ft / 0 m 47.71500˚ -114.14008˚ 48 nm 234 nm 357° / 357° -
SAK NDB - 0 ft / 0 m 48.10828˚ -114.46125˚ 26 nm 261 nm 331° / 331° SMITH LAKE NDB
O KGPI APT - 0 ft / 0 m 48.31795˚ -114.25818˚ 14 nm 276 nm 33° / 33° -

Altitude Profile

Advertisement - Login to hide

Weather


0- 5 10 15 20 25 30 35+ Temperature / ° C

Clouds and Precipitation
Forecast for 2017-12-13 00:00 UTC. Updated 40 minutes ago

Ground ~20,000 ft ~40,000 ft Winds

KWYS

Details ICAO KWYS (WYS)
Name Yellowstone
Region United States
Timezone America/Denver (UTC-7.0)
Stats Elevation 6,644 ft / 2,025 m (AMSL)
Location 44.688398° -111.117638°
Runways 1
Magnetic Variation 11.725° E

METAR

KWYS 122350Z AUTO VRB03KT 10SM CLR M04/M10 A3037 RMK AO2

Decode

TAF

Not found

Departure Runways

ID Width Length Bearing (true) Bearing (mag) Surface Threshold Offset Overrun Length
01 150 ft / 46 m 8,399 ft / 2,560 m 26.19° 14.47° Asphalt 0 ft / 0 m 0 ft / 0 m
19 150 ft / 46 m 8,399 ft / 2,560 m 206.20° 194.48° Asphalt 0 ft / 0 m 0 ft / 0 m

KGPI

Details ICAO KGPI
Name GLACIER PARK INTL
Region United States
Timezone America/Denver (UTC-7.0)
Stats Elevation 2,977 ft / 907 m (AMSL)
Location 48.311718° -114.255121°
Runways 2
Magnetic Variation 13.631° E

METAR

KGPI 122355Z 00000KT 2SM BR OVC006 M03/M04 A3043 RMK AO2 SLP343 T10331039 11033 21050 56002

Decode

TAF

KGPI 122340Z 1300/1324 00000KT 2SM BR OVC005 FM130500 00000KT 1SM BR OVC003 FM131300 00000KT 1SM -SN BR OVC003 FM131800 VRB03KT 3SM BR OVC005

Decode

Destination Runways

ID Width Length Bearing (true) Bearing (mag) Surface Threshold Offset Overrun Length
02 150 ft / 46 m 9,023 ft / 2,750 m 34.81° 21.18° Asphalt 0 ft / 0 m 0 ft / 0 m
12 75 ft / 23 m 3,507 ft / 1,069 m 136.32° 122.69° Asphalt 0 ft / 0 m 650 ft / 198 m
20 150 ft / 46 m 9,023 ft / 2,750 m 214.83° 201.20° Asphalt 0 ft / 0 m 171 ft / 52 m
30 75 ft / 23 m 3,507 ft / 1,069 m 316.32° 302.69° Asphalt 0 ft / 0 m 541 ft / 165 m

Approach Navaids

Runway Type Ident Frequency Range Bearing (true) Bearing (mag) Slope Elevation
02 Localiser IFCA 111.50 MHz 18 nm / 33 km 34.72° 21.09° - 2,978 ft / 908 m (AMSL)
02 Glidescope IFCA 111.50 MHz 10 nm / 19 km 34.75° 21.12° 3.00° 2,962 ft / 903 m (AMSL)